createdAt,value
2022-07-29T00:00:21.351Z,100994.71
2022-07-29T00:03:03.912Z,100996.95
2022-07-29T00:05:32.197Z,100995.42
2022-07-29T00:08:00.167Z,100998.16
2022-07-29T00:10:29.256Z,100996.79
2022-07-29T00:12:57.123Z,100995.27
2022-07-29T00:15:25.106Z,100995.77
2022-07-29T00:17:53.059Z,100993.21
2022-07-29T00:20:20.965Z,100993.37
2022-07-29T00:22:48.891Z,101000.90
2022-07-29T00:25:17.068Z,100999.02
2022-07-29T00:27:45.035Z,101006.37
2022-07-29T00:30:13.460Z,101006.20
2022-07-29T00:32:41.481Z,101003.64
2022-07-29T00:35:29.210Z,101004.84
2022-07-29T00:37:57.282Z,101004.33
2022-07-29T00:40:25.355Z,101001.08
2022-07-29T00:42:54.350Z,101002.96
2022-07-29T00:45:23.348Z,100996.29
2022-07-29T00:47:51.405Z,100992.68
2022-07-29T00:50:19.400Z,100989.45
2022-07-29T00:52:47.765Z,100991.14
2022-07-29T00:55:17.561Z,100990.81
2022-07-29T00:57:46.300Z,100986.20
2022-07-29T01:00:18.843Z,100981.05
2022-07-29T01:02:49.365Z,100982.60
2022-07-29T01:05:20.193Z,100989.44
2022-07-29T01:07:51.126Z,100991.48
2022-07-29T01:10:21.038Z,100993.54
2022-07-29T01:12:51.569Z,100993.70
2022-07-29T01:15:19.991Z,100994.39
2022-07-29T01:18:11.059Z,100995.40
2022-07-29T01:21:01.039Z,100995.23
2022-07-29T01:23:37.709Z,100996.09
2022-07-29T01:26:41.046Z,100992.50
2022-07-29T01:29:24.647Z,100991.98
2022-07-29T01:32:01.168Z,100991.98
2022-07-29T01:34:40.756Z,100993.01
2022-07-29T01:37:40.913Z,100991.29
2022-07-29T01:40:38.230Z,100992.99
2022-07-29T01:43:13.465Z,100993.65
2022-07-29T01:45:59.048Z,100994.52
2022-07-29T01:48:40.573Z,100993.30
2022-07-29T01:51:49.770Z,100997.23
2022-07-29T01:54:26.234Z,100999.45
2022-07-29T01:56:58.131Z,100996.88
2022-07-29T01:59:26.965Z,100997.91
2022-07-29T02:01:58.622Z,101001.84
2022-07-29T02:04:30.180Z,100998.91
2022-07-29T02:07:06.365Z,100995.83
2022-07-29T02:09:37.085Z,100997.69
2022-07-29T02:12:07.376Z,100996.65
2022-07-29T02:14:39.369Z,100994.42
2022-07-29T02:17:07.785Z,100999.02
2022-07-29T02:19:39.300Z,101001.76
2022-07-29T02:22:08.705Z,101002.62
2022-07-29T02:24:39.639Z,100999.02
2022-07-29T02:27:09.169Z,101000.04
2022-07-29T02:29:38.646Z,100997.80
2022-07-29T02:32:10.130Z,100996.23
2022-07-29T02:34:39.809Z,100995.55
2022-07-29T02:37:11.000Z,100996.73
2022-07-29T02:39:42.608Z,100997.91
2022-07-29T02:42:15.931Z,101000.47
2022-07-29T02:44:44.797Z,101000.12
2022-07-29T02:47:41.945Z,101001.14
2022-07-29T02:50:18.715Z,100996.35
2022-07-29T02:52:56.545Z,100998.73
2022-07-29T02:55:50.142Z,100999.23
2022-07-29T02:58:31.869Z,101002.79
2022-07-29T03:01:03.417Z,101000.73
2022-07-29T03:03:35.584Z,101004.66
2022-07-29T03:06:05.193Z,101004.15
2022-07-29T03:08:34.062Z,101002.28
2022-07-29T03:11:03.800Z,101001.11
2022-07-29T03:13:32.294Z,101002.14
2022-07-29T03:16:00.872Z,100998.90
2022-07-29T03:18:29.336Z,101001.46
2022-07-29T03:20:57.435Z,100998.05
2022-07-29T03:23:27.215Z,100999.59
2022-07-29T03:26:01.498Z,101001.49
2022-07-29T03:28:29.499Z,101002.70
2022-07-29T03:30:57.460Z,101009.21
2022-07-29T03:33:25.468Z,101004.45
2022-07-29T03:35:53.405Z,101002.09
2022-07-29T03:38:25.369Z,101002.27
2022-07-29T03:41:02.653Z,101004.86
2022-07-29T03:43:38.927Z,101005.44
2022-07-29T03:46:19.207Z,101009.05
2022-07-29T03:48:51.800Z,101010.95
2022-07-29T03:51:20.125Z,101008.73
2022-07-29T03:54:09.304Z,101008.41
2022-07-29T03:56:49.241Z,101005.52
2022-07-29T03:59:18.978Z,101002.78
2022-07-29T04:01:47.748Z,101003.13
2022-07-29T04:04:16.496Z,101004.33
2022-07-29T04:06:48.327Z,101007.58
2022-07-29T04:09:16.479Z,101011.85
2022-07-29T04:12:03.248Z,101007.91
2022-07-29T04:14:33.881Z,101008.59
2022-07-29T04:17:03.806Z,101010.64
2022-07-29T04:19:32.595Z,101011.14
2022-07-29T04:22:01.281Z,101010.78
2022-07-29T04:24:29.243Z,101010.09
2022-07-29T04:26:57.251Z,101007.15
2022-07-29T04:29:25.180Z,101008.17
2022-07-29T04:31:53.145Z,101008.52
2022-07-29T04:34:21.236Z,101010.37
2022-07-29T04:36:49.185Z,101014.45
2022-07-29T04:39:22.622Z,101014.60
2022-07-29T04:41:52.581Z,101013.04
2022-07-29T04:44:27.669Z,101013.86
2022-07-29T04:46:58.447Z,101014.50
2022-07-29T04:49:26.667Z,101018.75
2022-07-29T04:51:54.707Z,101023.34
2022-07-29T04:54:22.675Z,101023.80
2022-07-29T04:56:50.672Z,101021.36
2022-07-29T04:59:18.776Z,101023.20
2022-07-29T05:01:46.787Z,101022.29
2022-07-29T05:04:14.941Z,101024.45
2022-07-29T05:06:43.127Z,101029.18
2022-07-29T05:09:10.872Z,101032.72
2022-07-29T05:11:38.722Z,101036.91
2022-07-29T05:14:06.814Z,101040.57
2022-07-29T05:16:34.765Z,101040.39
2022-07-29T05:19:02.733Z,101039.24
2022-07-29T05:21:30.624Z,101037.14
2022-07-29T05:23:58.562Z,101034.16
2022-07-29T05:26:26.652Z,101027.58
2022-07-29T05:28:55.729Z,101027.52
2022-07-29T05:31:23.740Z,101029.18
2022-07-29T05:33:51.669Z,101031.19
2022-07-29T05:36:19.639Z,101030.09
2022-07-29T05:38:47.506Z,101033.98
2022-07-29T05:41:16.188Z,101035.77
2022-07-29T05:43:44.150Z,101030.55
2022-07-29T05:46:12.302Z,101024.30
2022-07-29T05:48:40.733Z,101027.10
2022-07-29T05:51:08.706Z,101024.73
2022-07-29T05:53:36.640Z,101022.05
2022-07-29T05:56:06.343Z,101023.83
2022-07-29T05:58:34.449Z,101021.62
2022-07-29T06:01:02.535Z,101019.09
2022-07-29T06:03:30.865Z,101017.77
2022-07-29T06:05:59.138Z,101014.15
2022-07-29T06:08:27.041Z,101015.70
2022-07-29T06:10:55.585Z,101013.66
2022-07-29T06:13:23.553Z,101010.88
2022-07-29T06:15:51.699Z,101011.41
2022-07-29T06:18:21.948Z,101009.13
2022-07-29T06:20:49.915Z,101015.97
2022-07-29T06:23:18.861Z,101018.85
2022-07-29T06:25:47.193Z,101015.91
2022-07-29T06:28:15.572Z,101018.45
2022-07-29T06:30:43.512Z,101017.84
2022-07-29T06:33:17.535Z,101016.40
2022-07-29T06:35:52.444Z,101015.80
2022-07-29T06:38:31.416Z,101019.14
2022-07-29T06:41:06.900Z,101022.27
2022-07-29T06:43:42.667Z,101025.46
2022-07-29T06:46:21.004Z,101026.92
2022-07-29T06:48:49.732Z,101025.35
2022-07-29T06:51:22.474Z,101019.98
2022-07-29T06:54:01.432Z,101020.98
2022-07-29T06:56:38.328Z,101024.08
2022-07-29T06:59:09.323Z,101020.39
2022-07-29T07:01:38.807Z,101016.86
2022-07-29T07:04:07.525Z,101021.11
2022-07-29T07:06:35.905Z,101021.15
2022-07-29T07:09:03.812Z,101015.64
2022-07-29T07:11:31.915Z,101014.90
2022-07-29T07:14:03.437Z,101019.41
2022-07-29T07:16:32.927Z,101021.19
2022-07-29T07:19:01.649Z,101017.25
2022-07-29T07:21:31.003Z,101016.21
2022-07-29T07:24:00.461Z,101014.31
2022-07-29T07:26:29.168Z,101011.63
2022-07-29T07:28:57.150Z,101014.02
2022-07-29T07:31:25.141Z,101014.11
2022-07-29T07:33:54.697Z,101019.05
2022-07-29T07:36:23.668Z,101019.81
2022-07-29T07:38:51.649Z,101021.35
2022-07-29T07:41:19.724Z,101020.77
2022-07-29T07:43:48.204Z,101015.38
2022-07-29T07:46:17.175Z,101016.35
2022-07-29T07:48:45.536Z,101020.45
2022-07-29T07:51:13.436Z,101020.38
2022-07-29T07:53:42.123Z,101019.38
2022-07-29T07:56:11.775Z,101015.03
2022-07-29T07:58:40.827Z,101013.85
2022-07-29T08:01:09.623Z,101018.44
2022-07-29T08:03:38.200Z,101019.45
2022-07-29T08:06:07.042Z,101015.61
2022-07-29T08:08:35.108Z,101018.29
2022-07-29T08:11:09.064Z,101016.91
2022-07-29T08:13:39.342Z,101019.39
2022-07-29T08:16:16.575Z,101015.61
2022-07-29T08:18:46.243Z,101015.05
2022-07-29T08:21:16.158Z,101019.79
2022-07-29T08:24:15.763Z,101024.23
2022-07-29T08:26:44.586Z,101026.02
2022-07-29T08:29:15.951Z,101022.52
2022-07-29T08:31:47.118Z,101023.54
2022-07-29T08:34:15.101Z,101024.23
2022-07-29T08:36:43.173Z,101019.39
2022-07-29T08:39:11.365Z,101014.78
2022-07-29T08:41:39.430Z,101010.86
2022-07-29T08:44:07.381Z,101013.30
2022-07-29T08:46:39.141Z,101019.37
2022-07-29T08:49:08.504Z,101014.55
2022-07-29T08:51:49.287Z,101013.52
2022-07-29T08:54:19.751Z,101016.16
2022-07-29T08:56:50.678Z,101011.67
2022-07-29T08:59:25.721Z,101010.58
2022-07-29T09:01:55.475Z,101009.86
2022-07-29T09:04:28.506Z,101011.73
2022-07-29T09:07:02.005Z,101010.64
2022-07-29T09:09:30.179Z,101010.28
2022-07-29T09:12:01.050Z,101004.09
2022-07-29T09:14:28.919Z,100996.64
2022-07-29T09:16:57.679Z,101001.27
2022-07-29T09:19:31.168Z,100998.52
2022-07-29T09:22:03.627Z,101001.50
2022-07-29T09:24:39.185Z,100996.53
2022-07-29T09:27:11.080Z,100995.35
2022-07-29T09:29:39.827Z,100997.19
2022-07-29T09:32:11.074Z,100997.34
2022-07-29T09:34:38.979Z,100989.02
2022-07-29T09:37:06.912Z,100994.11
2022-07-29T09:39:46.857Z,100997.11
2022-07-29T09:42:29.672Z,101001.65
2022-07-29T09:44:57.848Z,100995.73
2022-07-29T09:47:50.379Z,100994.58
2022-07-29T09:50:20.693Z,100991.28
2022-07-29T09:52:51.043Z,100988.09
2022-07-29T09:55:19.802Z,100985.27
2022-07-29T09:57:48.414Z,100988.51
2022-07-29T10:00:21.735Z,100984.30
2022-07-29T10:02:50.110Z,100978.86
2022-07-29T10:05:27.370Z,100975.38
2022-07-29T10:08:06.065Z,100970.95
2022-07-29T10:10:39.515Z,100969.10
2022-07-29T10:13:15.020Z,100969.51
2022-07-29T10:15:46.955Z,100968.26
2022-07-29T10:18:16.015Z,100968.36
2022-07-29T10:20:44.148Z,100966.44
2022-07-29T10:23:12.116Z,100963.16
2022-07-29T10:25:45.511Z,100963.05
2022-07-29T10:28:16.587Z,100963.04
2022-07-29T10:30:46.678Z,100953.89
2022-07-29T10:33:49.089Z,100953.90
2022-07-29T10:36:18.541Z,100953.63
2022-07-29T10:39:07.348Z,100953.58
2022-07-29T10:42:07.731Z,100954.23
2022-07-29T10:44:41.957Z,100948.52
2022-07-29T10:47:20.897Z,100950.47
2022-07-29T10:50:03.894Z,100951.86
2022-07-29T10:52:50.517Z,100949.96
2022-07-29T10:55:44.527Z,100948.05
2022-07-29T10:58:13.994Z,100943.40
2022-07-29T11:00:42.255Z,100941.46
2022-07-29T11:06:59.707Z,100940.20
2022-07-29T11:09:37.742Z,100937.95
2022-07-29T11:12:49.848Z,100933.70
2022-07-29T11:15:20.234Z,100929.85
2022-07-29T11:18:00.376Z,100930.08
2022-07-29T11:20:40.478Z,100927.96
2022-07-29T11:23:33.937Z,100929.48
2022-07-29T11:26:26.351Z,100926.70
2022-07-29T11:29:14.894Z,100922.87
2022-07-29T11:31:55.495Z,100921.00
2022-07-29T11:34:29.790Z,100919.23
2022-07-29T11:37:16.084Z,100924.52
2022-07-29T11:40:10.027Z,100926.78
2022-07-29T11:42:41.715Z,100923.88
2022-07-29T11:45:43.402Z,100924.02
2022-07-29T11:48:31.788Z,100918.72
2022-07-29T11:50:58.522Z,100911.35
2022-07-29T11:53:29.216Z,100908.53
2022-07-29T11:56:02.762Z,100908.24
2022-07-29T11:58:32.118Z,100907.23
2022-07-29T12:01:04.549Z,100909.30
2022-07-29T12:03:36.083Z,100899.35
2022-07-29T12:06:18.619Z,100902.73
2022-07-29T12:08:49.356Z,100909.51
2022-07-29T12:11:22.982Z,100907.73
2022-07-29T12:13:52.851Z,100913.85
2022-07-29T12:16:25.654Z,100910.61
2022-07-29T12:19:04.557Z,100909.44
2022-07-29T12:21:54.003Z,100910.00
2022-07-29T12:24:26.849Z,100906.61
2022-07-29T12:26:59.904Z,100907.56
2022-07-29T12:29:35.100Z,100902.35
2022-07-29T12:32:14.640Z,100906.42
2022-07-29T12:34:47.561Z,100905.48
2022-07-29T12:37:15.937Z,100905.14
2022-07-29T12:39:44.195Z,100906.45
2022-07-29T12:42:18.642Z,100900.64
2022-07-29T12:44:47.977Z,100904.75
2022-07-29T12:47:17.002Z,100899.11
2022-07-29T12:49:45.996Z,100894.14
2022-07-29T12:52:33.212Z,100892.56
2022-07-29T12:55:01.993Z,100889.39
2022-07-29T12:57:30.308Z,100888.35
2022-07-29T13:00:09.367Z,100888.02
2022-07-29T13:02:41.038Z,100883.11
2022-07-29T13:05:10.330Z,100876.39
2022-07-29T13:07:54.148Z,100877.28
2022-07-29T13:10:26.489Z,100875.71
2022-07-29T13:13:13.210Z,100876.85
2022-07-29T13:15:48.256Z,100869.54
2022-07-29T13:18:34.851Z,100868.52
2022-07-29T13:21:16.861Z,100866.05
2022-07-29T13:23:46.964Z,100859.64
2022-07-29T13:26:15.236Z,100853.10
2022-07-29T13:28:44.245Z,100855.41
2022-07-29T13:31:12.600Z,100852.39
2022-07-29T13:33:40.924Z,100848.48
2022-07-29T13:36:09.366Z,100854.83
2022-07-29T13:38:37.274Z,100859.11
2022-07-29T13:41:05.136Z,100856.54
2022-07-29T13:43:33.579Z,100856.52
2022-07-29T13:46:01.671Z,100853.96
2022-07-29T13:48:29.729Z,100851.47
2022-07-29T13:50:57.994Z,100845.67
2022-07-29T13:53:26.840Z,100841.09
2022-07-29T13:55:55.916Z,100842.05
2022-07-29T13:58:24.093Z,100837.08
2022-07-29T14:00:52.090Z,100837.41
2022-07-29T14:03:20.099Z,100835.88
2022-07-29T14:05:48.465Z,100832.14
2022-07-29T14:08:16.542Z,100832.58
2022-07-29T14:10:44.805Z,100831.73
2022-07-29T14:13:25.004Z,100829.11
2022-07-29T14:15:54.303Z,100823.41
2022-07-29T14:18:22.338Z,100831.52
2022-07-29T14:20:50.914Z,100830.73
2022-07-29T14:23:20.373Z,100824.88
2022-07-29T14:25:49.377Z,100822.09
2022-07-29T14:28:18.093Z,100822.25
2022-07-29T14:30:46.203Z,100821.44
2022-07-29T14:33:14.365Z,100820.38
2022-07-29T14:35:42.412Z,100823.45
2022-07-29T14:38:10.478Z,100821.33
2022-07-29T14:40:39.180Z,100820.50
2022-07-29T14:43:10.254Z,100814.73
2022-07-29T14:45:38.908Z,100806.84
2022-07-29T14:48:06.985Z,100800.59
2022-07-29T14:50:34.930Z,100801.16
2022-07-29T14:53:02.796Z,100799.76
2022-07-29T14:55:30.901Z,100798.53
2022-07-29T14:58:08.771Z,100794.17
2022-07-29T15:00:39.120Z,100790.73
2022-07-29T15:03:07.211Z,100786.55
2022-07-29T15:05:40.253Z,100783.82
2022-07-29T15:08:09.341Z,100781.96
2022-07-29T15:10:37.468Z,100777.27
2022-07-29T15:13:05.790Z,100775.20
2022-07-29T15:15:33.877Z,100769.90
2022-07-29T15:18:01.824Z,100771.55
2022-07-29T15:20:29.797Z,100772.23
2022-07-29T15:22:58.236Z,100773.59
2022-07-29T15:25:28.001Z,100773.59
2022-07-29T15:28:00.964Z,100771.27
2022-07-29T15:30:33.829Z,100768.75
2022-07-29T15:33:04.119Z,100769.63
2022-07-29T15:35:32.659Z,100768.80
2022-07-29T15:38:00.729Z,100766.42
2022-07-29T15:40:29.386Z,100765.26
2022-07-29T15:42:57.397Z,100762.09
2022-07-29T15:45:25.482Z,100761.55
2022-07-29T15:47:53.522Z,100762.09
2022-07-29T15:50:21.588Z,100766.82
2022-07-29T15:52:49.560Z,100766.00
2022-07-29T15:55:17.450Z,100764.85
2022-07-29T15:57:45.908Z,100764.06
2022-07-29T16:00:14.354Z,100761.89
2022-07-29T16:02:44.606Z,100759.77
2022-07-29T16:05:12.821Z,100755.86
2022-07-29T16:07:40.749Z,100756.69
2022-07-29T16:10:08.971Z,100755.84
2022-07-29T16:12:36.889Z,100752.10
2022-07-29T16:15:09.690Z,100753.27
2022-07-29T16:17:39.091Z,100751.13
2022-07-29T16:20:07.834Z,100745.71
2022-07-29T16:22:35.930Z,100743.20
2022-07-29T16:25:04.144Z,100739.05
2022-07-29T16:27:37.750Z,100734.77
2022-07-29T16:30:09.750Z,100735.84
2022-07-29T16:32:37.949Z,100739.20
2022-07-29T16:35:07.434Z,100746.38
2022-07-29T16:37:36.712Z,100747.86
2022-07-29T16:40:06.669Z,100754.34
2022-07-29T16:42:46.527Z,100758.33
2022-07-29T16:45:21.154Z,100761.19
2022-07-29T16:47:49.629Z,100764.21
2022-07-29T16:50:17.882Z,100762.99
2022-07-29T16:52:45.785Z,100764.90
2022-07-29T16:55:13.846Z,100768.54
2022-07-29T16:57:43.116Z,100768.52
2022-07-29T17:00:12.518Z,100764.65
2022-07-29T17:02:40.591Z,100765.75
2022-07-29T17:05:09.350Z,100762.88
2022-07-29T17:07:37.547Z,100763.56
2022-07-29T17:10:08.155Z,100760.01
2022-07-29T17:12:40.512Z,100759.79
2022-07-29T17:15:11.339Z,100765.91
2022-07-29T17:17:55.135Z,100762.23
2022-07-29T17:20:24.225Z,100759.83
2022-07-29T17:22:52.187Z,100755.19
2022-07-29T17:25:21.434Z,100759.75
2022-07-29T17:27:50.941Z,100763.68
2022-07-29T17:30:19.226Z,100760.52
2022-07-29T17:32:47.779Z,100760.55
2022-07-29T17:35:34.555Z,100759.40
2022-07-29T17:38:02.423Z,100765.25
2022-07-29T17:40:30.413Z,100766.81
2022-07-29T17:42:58.194Z,100768.70
2022-07-29T17:45:26.428Z,100772.73
2022-07-29T17:48:14.369Z,100768.91
2022-07-29T17:50:42.270Z,100770.77
2022-07-29T17:53:16.482Z,100765.27
2022-07-29T17:55:48.902Z,100763.97
2022-07-29T17:58:16.719Z,100765.70
2022-07-29T18:00:44.876Z,100764.80
2022-07-29T18:03:13.107Z,100767.17
2022-07-29T18:05:41.604Z,100770.71
2022-07-29T18:08:09.884Z,100770.57
2022-07-29T18:10:37.961Z,100772.11
2022-07-29T18:13:06.066Z,100769.00
2022-07-29T18:15:33.995Z,100769.91
2022-07-29T18:18:01.965Z,100767.83
2022-07-29T18:20:29.931Z,100772.25
2022-07-29T18:22:58.045Z,100772.14
2022-07-29T18:25:26.997Z,100770.44
2022-07-29T18:27:59.904Z,100773.30
2022-07-29T18:30:29.734Z,100770.59
2022-07-29T18:33:19.577Z,100766.94
2022-07-29T18:35:46.353Z,100768.06
2022-07-29T18:38:14.992Z,100769.55
2022-07-29T18:40:43.261Z,100766.35
2022-07-29T18:43:12.260Z,100768.98
2022-07-29T18:45:40.745Z,100768.22
2022-07-29T18:48:12.754Z,100770.06
2022-07-29T18:50:42.348Z,100770.85
2022-07-29T18:53:10.224Z,100770.41
2022-07-29T18:55:38.248Z,100771.29
2022-07-29T18:58:06.213Z,100773.84
2022-07-29T19:00:34.111Z,100777.02
2022-07-29T19:03:03.497Z,100775.70
2022-07-29T19:05:31.762Z,100774.34
2022-07-29T19:07:59.723Z,100772.77
2022-07-29T19:10:27.793Z,100775.41
2022-07-29T19:12:56.923Z,100776.65
2022-07-29T19:15:24.858Z,100779.66
2022-07-29T19:17:53.992Z,100782.83
2022-07-29T19:20:23.457Z,100782.36
2022-07-29T19:22:51.220Z,100780.53
2022-07-29T19:25:19.752Z,100780.94
2022-07-29T19:27:47.808Z,100774.08
2022-07-29T19:30:16.181Z,100775.35
2022-07-29T19:32:44.223Z,100773.54
2022-07-29T19:35:24.489Z,100778.45
2022-07-29T19:37:53.298Z,100784.65
2022-07-29T19:40:22.151Z,100781.30
2022-07-29T19:42:51.867Z,100784.38
2022-07-29T19:45:21.776Z,100787.27
2022-07-29T19:47:50.059Z,100788.09
2022-07-29T19:50:18.120Z,100791.29
2022-07-29T19:52:47.726Z,100799.73
2022-07-29T19:55:16.413Z,100797.71
2022-07-29T19:57:46.938Z,100791.41
2022-07-29T20:00:16.715Z,100789.30
2022-07-29T20:02:44.776Z,100789.74
2022-07-29T20:05:12.994Z,100788.44
2022-07-29T20:07:40.892Z,100785.05
2022-07-29T20:10:10.102Z,100779.95
2022-07-29T20:12:38.564Z,100781.23
2022-07-29T20:15:07.467Z,100781.63
2022-07-29T20:17:39.912Z,100790.27
2022-07-29T20:20:09.199Z,100793.58
2022-07-29T20:22:37.420Z,100788.95
2022-07-29T20:25:09.840Z,100793.44
2022-07-29T20:27:40.894Z,100790.19
2022-07-29T20:30:09.369Z,100790.39
2022-07-29T20:32:40.813Z,100789.73
2022-07-29T20:35:10.174Z,100786.69
2022-07-29T20:37:52.175Z,100788.61
2022-07-29T20:40:25.844Z,100778.95
2022-07-29T20:42:55.185Z,100776.13
2022-07-29T20:45:24.212Z,100773.66
2022-07-29T20:47:53.043Z,100773.97
2022-07-29T20:50:24.075Z,100772.70
2022-07-29T20:52:52.860Z,100772.67
2022-07-29T20:55:21.505Z,100770.17
2022-07-29T20:57:49.474Z,100767.54
2022-07-29T21:00:17.751Z,100768.86
2022-07-29T21:02:45.633Z,100767.44
2022-07-29T21:05:13.584Z,100771.02
2022-07-29T21:07:41.586Z,100769.96
2022-07-29T21:10:09.934Z,100766.83
2022-07-29T21:12:38.000Z,100764.70
2022-07-29T21:15:06.708Z,100761.55
2022-07-29T21:17:36.294Z,100761.34
2022-07-29T21:20:06.840Z,100763.75
2022-07-29T21:22:34.788Z,100758.02
2022-07-29T21:25:02.755Z,100759.39
2022-07-29T21:27:49.367Z,100764.60
2022-07-29T21:30:17.262Z,100764.25
2022-07-29T21:32:45.240Z,100755.95
2022-07-29T21:35:30.269Z,100754.26
2022-07-29T21:38:01.303Z,100753.62
2022-07-29T21:40:30.607Z,100755.87
2022-07-29T21:42:58.471Z,100756.38
2022-07-29T21:45:26.950Z,100752.27
2022-07-29T21:47:54.923Z,100747.13
2022-07-29T21:50:22.718Z,100747.10
2022-07-29T21:52:50.648Z,100744.17
2022-07-29T21:55:19.319Z,100744.17
2022-07-29T21:57:48.954Z,100745.41
2022-07-29T22:00:16.910Z,100741.65
2022-07-29T22:02:45.648Z,100738.23
2022-07-29T22:05:14.397Z,100738.27
2022-07-29T22:07:54.397Z,100740.15
2022-07-29T22:10:26.293Z,100744.29
2022-07-29T22:12:56.206Z,100744.06
2022-07-29T22:15:24.726Z,100740.58
2022-07-29T22:17:53.301Z,100746.28
2022-07-29T22:20:21.238Z,100742.80
2022-07-29T22:22:49.202Z,100743.80
2022-07-29T22:25:17.990Z,100738.77
2022-07-29T22:27:46.061Z,100739.95
2022-07-29T22:30:14.642Z,100741.52
2022-07-29T22:32:43.332Z,100736.55
2022-07-29T22:35:11.810Z,100735.19
2022-07-29T22:37:40.301Z,100730.06
2022-07-29T22:40:09.287Z,100730.23
2022-07-29T22:42:40.779Z,100730.23
2022-07-29T22:45:10.875Z,100734.03
2022-07-29T22:47:48.004Z,100738.17
2022-07-29T22:50:17.539Z,100736.42
2022-07-29T22:52:46.544Z,100738.46
2022-07-29T22:55:14.914Z,100739.50
2022-07-29T22:57:42.992Z,100737.67
2022-07-29T23:00:12.469Z,100738.39
2022-07-29T23:02:41.794Z,100734.14
2022-07-29T23:05:10.585Z,100731.57
2022-07-29T23:07:38.849Z,100731.26
2022-07-29T23:10:07.207Z,100724.02
2022-07-29T23:12:35.291Z,100727.01
2022-07-29T23:15:04.503Z,100725.13
2022-07-29T23:17:36.132Z,100728.26
2022-07-29T23:20:07.946Z,100727.77
2022-07-29T23:22:36.379Z,100727.98
2022-07-29T23:25:05.030Z,100728.89
2022-07-29T23:27:33.059Z,100726.11
2022-07-29T23:30:01.114Z,100726.12
2022-07-29T23:32:28.969Z,100724.42
2022-07-29T23:34:56.845Z,100725.63
2022-07-29T23:37:24.800Z,100725.80
2022-07-29T23:39:55.227Z,100725.31
2022-07-29T23:42:23.297Z,100727.58
2022-07-29T23:44:51.572Z,100725.69
2022-07-29T23:47:19.539Z,100727.60
2022-07-29T23:49:50.076Z,100730.75
2022-07-29T23:52:18.254Z,100734.13
2022-07-29T23:54:46.210Z,100732.02
2022-07-29T23:57:14.215Z,100729.42
2022-07-29T23:59:42.555Z,100728.14
